Time;durP1;ratioP1;P1;durP2;ratioP2;P2;SDS_P1;SDS_P2;PMS_P1;PMS_P2;Temp;Humidity;BMP_temperature;BMP_pressure;BME280_temperature;BME280_humidity;BME280_pressure;Samples;Min_cycle;Max_cycle;Signal;HPM_P1;HPM_P2
2022/07/10 00:02:10;;;;;;;;;;;21.10;41.90;;;;;;6245891;23;19926;-87
2022/07/10 00:04:35;;;;;;;;;;;21.10;41.90;;;;;;6247164;23;19912;-87
2022/07/10 00:07:01;;;;;;;;;;;21.10;42.00;;;;;;6245717;23;19911;-86
2022/07/10 00:09:28;;;;;;;;;;;21.10;42.00;;;;;;6247047;22;20312;-86
2022/07/10 00:11:56;;;;;;;;;;;21.10;42.00;;;;;;6245345;23;19912;-88
2022/07/10 00:14:22;;;;;;;;;;;21.10;42.00;;;;;;6245528;23;19911;-86
2022/07/10 00:16:47;;;;;;;;;;;21.10;42.00;;;;;;6247191;22;20312;-87
2022/07/10 00:19:13;;;;;;;;;;;21.10;41.90;;;;;;6245341;23;20276;-87
2022/07/10 00:21:38;;;;;;;;;;;21.10;41.90;;;;;;6220354;23;19911;-87
2022/07/10 00:24:42;;;;;;;;;;;21.10;41.90;;;;;;6244752;23;19904;-86
2022/07/10 00:27:30;;;;;;;;;;;;;;;;;;;;;
2022/07/10 00:30:09;;;;;;;;;;;;;;;;;;;;;
2022/07/10 00:32:35;;;;;;;;;;;21.00;42.00;;;;;;6247570;23;19956;-86
2022/07/10 00:35:01;;;;;;;;;;;21.00;42.10;;;;;;6246523;23;20297;-86
2022/07/10 00:37:27;;;;;;;;;;;21.00;42.20;;;;;;6247079;23;19912;-86
2022/07/10 00:39:55;;;;;;;;;;;21.00;42.20;;;;;;6246575;23;20387;-87
2022/07/10 00:42:21;;;;;;;;;;;21.00;42.30;;;;;;6247846;22;19911;-87
2022/07/10 00:44:46;;;;;;;;;;;21.00;42.30;;;;;;6244845;23;19904;-87
2022/07/10 00:47:13;;;;;;;;;;;20.90;42.40;;;;;;6247052;22;19919;-88
2022/07/10 00:49:39;;;;;;;;;;;20.90;42.40;;;;;;6245295;23;20374;-87
2022/07/10 00:52:06;;;;;;;;;;;20.90;42.60;;;;;;6247145;22;19912;-87
2022/07/10 00:54:33;;;;;;;;;;;20.90;42.70;;;;;;6246586;23;19990;-88
2022/07/10 00:56:59;;;;;;;;;;;20.90;42.70;;;;;;6220315;23;19911;-87
2022/07/10 00:59:25;;;;;;;;;;;20.90;42.70;;;;;;6219352;23;20030;-87
2022/07/10 01:01:51;;;;;;;;;;;20.90;42.80;;;;;;6246783;22;19962;-87
2022/07/10 01:04:17;;;;;;;;;;;20.80;42.80;;;;;;6247147;23;20260;-87
2022/07/10 01:06:42;;;;;;;;;;;20.80;42.80;;;;;;6219768;23;19958;-87
2022/07/10 01:09:07;;;;;;;;;;;20.80;43.00;;;;;;6245456;23;19982;-87
2022/07/10 01:11:36;;;;;;;;;;;20.80;43.00;;;;;;6247081;22;19970;-87
2022/07/10 01:14:02;;;;;;;;;;;20.80;42.90;;;;;;6247263;23;20320;-87
2022/07/10 01:16:29;;;;;;;;;;;20.80;43.00;;;;;;6219945;23;19927;-87
2022/07/10 01:18:55;;;;;;;;;;;20.80;43.00;;;;;;6219966;23;19914;-88
2022/07/10 01:21:27;;;;;;;;;;;20.80;43.00;;;;;;6220151;23;19946;-87
2022/07/10 01:23:53;;;;;;;;;;;20.80;43.20;;;;;;6245348;23;20236;-87
2022/07/10 01:26:20;;;;;;;;;;;20.70;43.40;;;;;;6220220;23;19987;-87
2022/07/10 01:28:47;;;;;;;;;;;20.70;43.30;;;;;;6221046;23;19915;-88
2022/07/10 01:31:12;;;;;;;;;;;20.70;43.50;;;;;;6247845;22;19907;-87
2022/07/10 01:33:38;;;;;;;;;;;20.70;43.60;;;;;;6246814;23;19907;-87
2022/07/10 01:36:03;;;;;;;;;;;20.70;43.60;;;;;;6246387;22;19911;-87
2022/07/10 01:38:28;;;;;;;;;;;20.70;43.80;;;;;;6246625;23;19983;-87
2022/07/10 01:40:55;;;;;;;;;;;20.60;43.80;;;;;;6247471;23;19958;-87
2022/07/10 01:43:20;;;;;;;;;;;20.50;44.00;;;;;;6219766;23;19990;-87
2022/07/10 01:45:46;;;;;;;;;;;20.60;44.10;;;;;;6245272;23;19907;-87
2022/07/10 01:48:17;;;;;;;;;;;20.60;44.10;;;;;;6247120;23;19912;-87
2022/07/10 01:50:43;;;;;;;;;;;20.60;44.00;;;;;;6219850;23;19974;-87
2022/07/10 01:53:08;;;;;;;;;;;20.50;44.10;;;;;;6247152;23;19907;-87
2022/07/10 01:55:37;;;;;;;;;;;20.50;44.20;;;;;;6244854;23;19907;-87
2022/07/10 01:58:03;;;;;;;;;;;20.50;44.30;;;;;;6245412;23;19926;-87
2022/07/10 02:00:28;;;;;;;;;;;20.50;44.30;;;;;;6247008;23;19931;-88
2022/07/10 02:05:58;;;;;;;;;;;20.50;44.50;;;;;;6246797;23;19930;-87
2022/07/10 02:08:24;;;;;;;;;;;20.40;44.60;;;;;;6194058;23;19934;-88
2022/07/10 02:10:49;;;;;;;;;;;20.50;44.50;;;;;;6246586;23;19908;-88
2022/07/10 02:13:17;;;;;;;;;;;20.40;44.60;;;;;;6219818;23;20378;-87
2022/07/10 02:15:43;;;;;;;;;;;20.40;44.60;;;;;;6245895;23;19993;-87
2022/07/10 02:18:09;;;;;;;;;;;20.40;44.50;;;;;;6249206;22;20263;-87
2022/07/10 02:20:38;;;;;;;;;;;20.50;44.50;;;;;;6248540;23;19903;-87
2022/07/10 02:23:04;;;;;;;;;;;20.40;44.50;;;;;;6250376;22;19986;-87
2022/07/10 02:25:29;;;;;;;;;;;20.50;44.50;;;;;;6221375;23;19942;-87
2022/07/10 02:27:55;;;;;;;;;;;20.50;44.50;;;;;;6247084;23;20258;-87
2022/07/10 02:30:20;;;;;;;;;;;20.50;44.60;;;;;;6247043;23;19908;-86
2022/07/10 02:32:46;;;;;;;;;;;20.40;44.50;;;;;;6221445;23;19908;-86
2022/07/10 02:35:11;;;;;;;;;;;20.40;44.70;;;;;;6246345;23;19916;-87
2022/07/10 02:37:36;;;;;;;;;;;20.40;44.70;;;;;;6247121;23;19943;-87
2022/07/10 02:40:02;;;;;;;;;;;20.40;44.60;;;;;;6221191;23;19974;-86
2022/07/10 02:42:28;;;;;;;;;;;20.40;44.60;;;;;;6221204;23;19915;-86
2022/07/10 02:44:53;;;;;;;;;;;20.40;44.70;;;;;;6246677;23;20198;-87
2022/07/10 02:47:18;;;;;;;;;;;20.40;44.80;;;;;;6247718;23;20321;-87
2022/07/10 02:49:44;;;;;;;;;;;20.40;44.90;;;;;;6247629;23;19908;-87
2022/07/10 02:52:09;;;;;;;;;;;20.40;44.80;;;;;;6248047;22;20317;-87
2022/07/10 02:54:35;;;;;;;;;;;20.40;44.80;;;;;;6246192;23;19911;-87
2022/07/10 02:57:00;;;;;;;;;;;20.40;44.80;;;;;;6247560;23;19982;-86
2022/07/10 02:59:26;;;;;;;;;;;20.40;44.70;;;;;;6248076;22;20256;-87
2022/07/10 03:01:51;;;;;;;;;;;20.40;44.90;;;;;;6248290;23;19911;-86
2022/07/10 03:04:17;;;;;;;;;;;20.40;44.90;;;;;;6247708;22;20233;-86
2022/07/10 03:06:42;;;;;;;;;;;20.30;44.90;;;;;;6246254;23;19911;-86
2022/07/10 03:09:08;;;;;;;;;;;20.30;44.90;;;;;;6220787;22;19908;-87
2022/07/10 03:11:33;;;;;;;;;;;20.30;44.90;;;;;;6246347;23;20300;-88
2022/07/10 03:13:59;;;;;;;;;;;20.30;45.00;;;;;;6246216;23;20042;-87
2022/07/10 03:16:24;;;;;;;;;;;20.30;45.10;;;;;;6247712;22;19998;-87
2022/07/10 03:18:50;;;;;;;;;;;20.30;45.00;;;;;;6247928;23;19904;-88
2022/07/10 03:21:15;;;;;;;;;;;20.40;45.00;;;;;;6220677;22;19914;-87
2022/07/10 03:23:40;;;;;;;;;;;20.30;44.90;;;;;;6247714;23;19904;-88
2022/07/10 03:26:06;;;;;;;;;;;20.40;44.90;;;;;;6247405;22;19904;-88
2022/07/10 03:28:33;;;;;;;;;;;20.40;45.00;;;;;;6247425;23;19911;-87
2022/07/10 03:30:58;;;;;;;;;;;20.40;45.00;;;;;;6246741;23;19903;-88
2022/07/10 03:33:24;;;;;;;;;;;20.40;45.00;;;;;;6245945;23;19918;-87
2022/07/10 03:35:49;;;;;;;;;;;20.40;45.00;;;;;;6247519;23;19908;-87
2022/07/10 03:38:14;;;;;;;;;;;20.40;45.10;;;;;;6245773;23;19911;-87
2022/07/10 03:40:40;;;;;;;;;;;20.30;45.20;;;;;;6246505;23;19904;-87
2022/07/10 03:43:08;;;;;;;;;;;20.40;45.40;;;;;;6247940;22;19935;-87
2022/07/10 03:45:36;;;;;;;;;;;20.30;45.40;;;;;;6247463;23;19904;-87
2022/07/10 03:48:02;;;;;;;;;;;20.30;45.50;;;;;;6247309;22;19919;-87
2022/07/10 03:50:27;;;;;;;;;;;20.30;45.50;;;;;;6245790;23;19904;-87
2022/07/10 03:52:53;;;;;;;;;;;20.30;45.70;;;;;;6246185;23;19912;-87
2022/07/10 03:55:18;;;;;;;;;;;20.30;45.80;;;;;;6245868;23;20312;-88
2022/07/10 03:57:53;;;;;;;;;;;20.30;45.80;;;;;;6247044;22;19908;-87
2022/07/10 04:00:21;;;;;;;;;;;20.30;45.80;;;;;;6247786;22;19911;-87
2022/07/10 04:02:47;;;;;;;;;;;20.30;45.90;;;;;;6246832;23;19904;-87
2022/07/10 04:05:12;;;;;;;;;;;20.30;45.80;;;;;;6246892;22;19950;-87
2022/07/10 04:07:38;;;;;;;;;;;20.30;45.80;;;;;;6246902;23;20011;-87
2022/07/10 04:10:04;;;;;;;;;;;20.30;45.80;;;;;;6246969;22;19912;-88
2022/07/10 04:12:29;;;;;;;;;;;20.30;45.80;;;;;;6220721;23;20315;-87
2022/07/10 04:14:56;;;;;;;;;;;20.30;45.80;;;;;;6246351;22;19961;-87
2022/07/10 04:17:21;;;;;;;;;;;20.40;45.90;;;;;;6245025;23;19943;-87
2022/07/10 04:19:53;;;;;;;;;;;20.40;45.90;;;;;;6244572;23;20642;-87
2022/07/10 04:22:18;;;;;;;;;;;20.40;45.90;;;;;;6247517;22;20301;-87
2022/07/10 04:24:44;;;;;;;;;;;20.40;45.90;;;;;;6245271;23;19914;-88
2022/07/10 04:27:09;;;;;;;;;;;20.40;45.90;;;;;;6246962;22;19981;-87
2022/07/10 04:29:34;;;;;;;;;;;20.50;45.90;;;;;;6246695;23;19908;-87
2022/07/10 04:32:00;;;;;;;;;;;20.50;45.90;;;;;;6219501;23;19908;-88
2022/07/10 04:34:25;;;;;;;;;;;20.50;45.80;;;;;;6244863;23;19912;-87
2022/07/10 04:36:54;;;;;;;;;;;20.50;45.80;;;;;;6246261;22;19920;-87
2022/07/10 04:39:19;;;;;;;;;;;20.50;45.80;;;;;;6246936;22;19983;-87
2022/07/10 04:41:45;;;;;;;;;;;20.60;45.80;;;;;;6247114;23;20349;-87
2022/07/10 04:44:10;;;;;;;;;;;20.70;45.70;;;;;;6246392;22;19908;-87
2022/07/10 04:46:42;;;;;;;;;;;20.70;45.60;;;;;;6245692;23;19979;-87
2022/07/10 04:49:07;;;;;;;;;;;20.70;45.60;;;;;;6246342;22;20244;-87
2022/07/10 04:51:33;;;;;;;;;;;20.80;45.50;;;;;;6247304;23;19912;-87
2022/07/10 04:53:58;;;;;;;;;;;20.80;45.50;;;;;;6245672;23;20267;-87
2022/07/10 04:56:27;;;;;;;;;;;20.80;45.40;;;;;;6244916;23;19946;-87
2022/07/10 04:58:52;;;;;;;;;;;20.90;45.40;;;;;;6245285;23;19914;-87
2022/07/10 05:01:18;;;;;;;;;;;20.90;45.40;;;;;;6245352;23;19954;-87
2022/07/10 05:03:44;;;;;;;;;;;21.00;45.40;;;;;;6247117;22;20208;-87
2022/07/10 05:06:09;;;;;;;;;;;21.00;45.30;;;;;;6245420;23;19911;-87
2022/07/10 05:08:36;;;;;;;;;;;21.00;45.30;;;;;;6246729;22;19907;-87
2022/07/10 05:11:01;;;;;;;;;;;21.00;45.40;;;;;;6245351;23;20382;-89
2022/07/10 05:13:27;;;;;;;;;;;21.00;45.30;;;;;;6245606;23;19907;-87
2022/07/10 05:15:52;;;;;;;;;;;21.10;45.30;;;;;;6246557;23;19951;-88
2022/07/10 05:18:18;;;;;;;;;;;21.10;45.40;;;;;;6245017;23;19947;-87
2022/07/10 05:20:44;;;;;;;;;;;21.10;45.30;;;;;;6246900;23;20438;-88
2022/07/10 05:23:11;;;;;;;;;;;21.20;45.20;;;;;;6219817;23;19999;-88
2022/07/10 05:25:37;;;;;;;;;;;21.20;45.20;;;;;;6246800;23;19962;-88
2022/07/10 05:28:04;;;;;;;;;;;21.30;45.10;;;;;;6219586;22;19970;-88
2022/07/10 05:30:29;;;;;;;;;;;21.30;45.00;;;;;;6220109;23;19918;-87
2022/07/10 05:32:55;;;;;;;;;;;21.30;45.00;;;;;;6246862;23;19935;-88
2022/07/10 05:35:20;;;;;;;;;;;21.40;44.90;;;;;;6219880;23;19918;-88
2022/07/10 05:37:46;;;;;;;;;;;21.50;44.90;;;;;;6245038;23;19935;-88
2022/07/10 05:40:14;;;;;;;;;;;21.60;44.90;;;;;;6246845;22;19907;-88
2022/07/10 05:42:39;;;;;;;;;;;21.70;44.80;;;;;;6220099;23;19912;-88
2022/07/10 05:45:06;;;;;;;;;;;21.70;44.70;;;;;;6245002;23;19904;-88
2022/07/10 05:47:34;;;;;;;;;;;21.80;44.70;;;;;;6219324;23;19916;-88
2022/07/10 05:50:00;;;;;;;;;;;21.90;44.60;;;;;;6221814;23;20352;-88
2022/07/10 05:52:25;;;;;;;;;;;21.90;44.50;;;;;;6247071;23;19947;-88
2022/07/10 05:54:51;;;;;;;;;;;21.90;44.40;;;;;;6246693;23;19957;-88
2022/07/10 05:57:16;;;;;;;;;;;22.00;44.40;;;;;;6248387;23;19919;-88
2022/07/10 05:59:42;;;;;;;;;;;22.10;44.40;;;;;;6248612;22;19911;-88
2022/07/10 06:02:08;;;;;;;;;;;22.20;44.30;;;;;;6221399;23;20297;-87
2022/07/10 06:04:33;;;;;;;;;;;22.20;44.20;;;;;;6248334;22;19910;-87
2022/07/10 06:06:59;;;;;;;;;;;22.20;44.10;;;;;;6221080;23;20331;-87
2022/07/10 06:09:24;;;;;;;;;;;22.30;44.00;;;;;;6247047;23;19904;-88
2022/07/10 06:11:50;;;;;;;;;;;22.30;44.00;;;;;;6246730;23;20237;-88
2022/07/10 06:14:16;;;;;;;;;;;22.40;43.90;;;;;;6221128;23;20293;-88
2022/07/10 06:16:41;;;;;;;;;;;22.50;43.90;;;;;;6246538;23;19922;-87
2022/07/10 06:19:06;;;;;;;;;;;22.60;43.70;;;;;;6246435;23;19911;-88
2022/07/10 06:21:32;;;;;;;;;;;22.70;43.60;;;;;;6248861;23;19907;-88
2022/07/10 06:23:58;;;;;;;;;;;22.70;43.80;;;;;;6246960;23;19954;-88
2022/07/10 06:26:24;;;;;;;;;;;22.80;44.10;;;;;;6249401;23;19979;-88
2022/07/10 06:28:49;;;;;;;;;;;22.80;44.30;;;;;;6247289;23;19907;-88
2022/07/10 06:31:15;;;;;;;;;;;23.00;44.10;;;;;;6249310;23;19985;-87
2022/07/10 06:33:41;;;;;;;;;;;23.10;43.40;;;;;;6248879;23;19934;-88
2022/07/10 06:36:07;;;;;;;;;;;23.20;43.20;;;;;;6223947;23;19942;-88
2022/07/10 06:38:32;;;;;;;;;;;23.30;43.10;;;;;;6251307;22;19979;-87
2022/07/10 06:40:58;;;;;;;;;;;23.40;42.90;;;;;;6248843;23;20339;-88
2022/07/10 06:43:23;;;;;;;;;;;23.70;42.60;;;;;;6249300;23;19920;-88
2022/07/10 06:45:49;;;;;;;;;;;23.80;42.30;;;;;;6247529;23;20205;-88
2022/07/10 06:48:15;;;;;;;;;;;24.10;42.00;;;;;;6248660;23;20354;-88
2022/07/10 06:50:41;;;;;;;;;;;24.40;41.70;;;;;;6249387;23;19907;-87
2022/07/10 06:53:07;;;;;;;;;;;24.80;41.60;;;;;;6249492;22;19979;-88
2022/07/10 06:55:33;;;;;;;;;;;25.10;40.80;;;;;;6249517;23;20045;-87
2022/07/10 06:57:59;;;;;;;;;;;25.30;39.80;;;;;;6249256;23;19910;-87
2022/07/10 07:00:25;;;;;;;;;;;25.40;39.40;;;;;;6249422;22;19908;-88
2022/07/10 07:02:50;;;;;;;;;;;25.50;38.60;;;;;;6222420;23;19907;-88
2022/07/10 07:05:16;;;;;;;;;;;25.70;38.80;;;;;;6247536;23;19935;-88
2022/07/10 07:07:41;;;;;;;;;;;25.80;38.60;;;;;;6249637;23;20259;-88
2022/07/10 07:10:08;;;;;;;;;;;26.00;38.50;;;;;;6255761;23;19908;-88
2022/07/10 07:12:36;;;;;;;;;;;26.20;38.20;;;;;;6225594;23;20221;-87
2022/07/10 07:15:02;;;;;;;;;;;26.30;37.50;;;;;;6224430;23;19923;-88
2022/07/10 07:17:56;;;;;;;;;;;26.40;37.00;;;;;;6249288;23;19911;-88
2022/07/10 07:23:09;;;;;;;;;;;26.30;36.10;;;;;;6250101;22;19942;-88
2022/07/10 07:25:35;;;;;;;;;;;26.10;36.10;;;;;;6221998;23;19904;-88
2022/07/10 07:28:00;;;;;;;;;;;25.90;36.00;;;;;;6248986;23;19903;-88
2022/07/10 07:30:26;;;;;;;;;;;25.80;36.40;;;;;;6222065;23;19918;-88
2022/07/10 07:32:51;;;;;;;;;;;25.80;36.70;;;;;;6248703;23;19907;-88
2022/07/10 07:35:17;;;;;;;;;;;26.00;36.80;;;;;;6248759;22;19916;-88
2022/07/10 07:37:51;;;;;;;;;;;26.10;36.40;;;;;;6248125;23;19911;-88
2022/07/10 07:40:25;;;;;;;;;;;26.20;36.00;;;;;;6248508;22;19994;-88
2022/07/10 07:42:53;;;;;;;;;;;26.20;36.20;;;;;;6246010;23;19918;-88
2022/07/10 07:45:18;;;;;;;;;;;26.30;36.20;;;;;;6221289;23;19961;-88
2022/07/10 07:47:45;;;;;;;;;;;26.30;35.90;;;;;;6220764;23;19904;-88
2022/07/10 07:50:12;;;;;;;;;;;26.20;35.50;;;;;;6248288;22;19911;-88
2022/07/10 07:52:38;;;;;;;;;;;26.10;35.70;;;;;;6220764;23;19978;-87
2022/07/10 07:55:03;;;;;;;;;;;26.10;36.00;;;;;;6246563;23;19923;-87
2022/07/10 07:57:29;;;;;;;;;;;26.20;35.80;;;;;;6220647;23;20367;-87
2022/07/10 07:59:54;;;;;;;;;;;26.10;35.70;;;;;;6247883;22;19961;-87
2022/07/10 08:02:21;;;;;;;;;;;26.10;35.70;;;;;;6246071;23;19908;-87
2022/07/10 08:04:46;;;;;;;;;;;26.20;35.70;;;;;;6221322;23;19911;-87
2022/07/10 08:07:14;;;;;;;;;;;26.20;35.10;;;;;;6247322;23;19926;-87
2022/07/10 08:09:40;;;;;;;;;;;26.20;35.40;;;;;;6246850;23;19950;-87
2022/07/10 08:12:05;;;;;;;;;;;26.30;35.80;;;;;;6246164;23;19903;-87
2022/07/10 08:14:33;;;;;;;;;;;26.70;35.80;;;;;;6245895;23;19915;-87
2022/07/10 08:16:59;;;;;;;;;;;27.30;36.00;;;;;;6221156;23;20297;-88
2022/07/10 08:19:25;;;;;;;;;;;28.00;35.70;;;;;;6246183;23;19911;-88
2022/07/10 08:21:53;;;;;;;;;;;29.00;34.50;;;;;;6246017;23;20330;-87
2022/07/10 08:24:18;;;;;;;;;;;29.90;33.30;;;;;;6247425;22;19935;-88
2022/07/10 08:26:44;;;;;;;;;;;30.70;30.70;;;;;;6246672;23;19903;-86
2022/07/10 08:29:09;;;;;;;;;;;31.10;28.80;;;;;;6245599;23;19922;-87
2022/07/10 08:31:35;;;;;;;;;;;31.20;28.30;;;;;;6220907;23;19904;-88
2022/07/10 08:34:00;;;;;;;;;;;31.20;28.10;;;;;;6248157;23;19958;-87
2022/07/10 08:36:26;;;;;;;;;;;31.30;28.20;;;;;;6246420;23;19904;-86
2022/07/10 08:38:53;;;;;;;;;;;31.30;27.80;;;;;;6221483;23;19938;-86
2022/07/10 08:41:24;;;;;;;;;;;31.50;27.20;;;;;;6221889;23;19911;-87
2022/07/10 08:43:50;;;;;;;;;;;31.40;26.50;;;;;;6248359;23;20041;-87
2022/07/10 08:46:17;;;;;;;;;;;31.40;26.60;;;;;;6246355;23;19912;-87
2022/07/10 08:48:46;;;;;;;;;;;31.50;26.60;;;;;;6247175;23;19912;-87
2022/07/10 08:51:15;;;;;;;;;;;31.80;26.50;;;;;;6219687;23;20312;-87
2022/07/10 08:53:40;;;;;;;;;;;31.80;26.20;;;;;;6220040;23;19915;-87
2022/07/10 08:56:06;;;;;;;;;;;32.10;25.90;;;;;;6246960;23;19911;-88
2022/07/10 08:58:32;;;;;;;;;;;32.10;25.00;;;;;;6247729;22;19911;-86
2022/07/10 09:00:58;;;;;;;;;;;32.00;25.20;;;;;;6246501;23;19908;-86
2022/07/10 09:03:23;;;;;;;;;;;32.00;25.20;;;;;;6243582;22;19982;-88
2022/07/10 09:05:51;;;;;;;;;;;31.70;25.10;;;;;;6246455;23;19908;-87
2022/07/10 09:08:23;;;;;;;;;;;31.50;25.20;;;;;;6247448;22;19919;-88
2022/07/10 09:10:48;;;;;;;;;;;31.40;25.40;;;;;;6220452;23;19908;-87
2022/07/10 09:13:24;;;;;;;;;;;31.40;25.30;;;;;;6243501;22;19939;-87
2022/07/10 09:15:49;;;;;;;;;;;31.50;25.50;;;;;;6219200;23;20324;-88
2022/07/10 09:18:18;;;;;;;;;;;31.80;25.40;;;;;;6243872;22;19942;-87
2022/07/10 09:20:46;;;;;;;;;;;31.90;24.70;;;;;;6218169;23;19911;-87
2022/07/10 09:23:19;;;;;;;;;;;32.00;24.90;;;;;;6246111;22;19977;-89
2022/07/10 09:25:47;;;;;;;;;;;32.10;24.90;;;;;;6249703;23;19915;-88
2022/07/10 09:28:13;;;;;;;;;;;32.20;24.70;;;;;;6248579;22;19919;-87
2022/07/10 09:30:39;;;;;;;;;;;32.30;24.50;;;;;;6248738;23;19908;-87
2022/07/10 09:33:36;;;;;;;;;;;32.30;24.50;;;;;;6222905;22;19935;-86
2022/07/10 09:36:10;;;;;;;;;;;32.20;24.40;;;;;;6191041;23;20244;-87
2022/07/10 09:38:39;;;;;;;;;;;32.00;24.60;;;;;;6222723;23;19908;-87
2022/07/10 09:41:17;;;;;;;;;;;31.90;24.60;;;;;;6247666;23;20243;-87
2022/07/10 09:43:46;;;;;;;;;;;31.80;24.80;;;;;;6221110;23;20342;-88
2022/07/10 09:46:11;;;;;;;;;;;31.70;24.60;;;;;;6222375;23;19915;-88
2022/07/10 09:48:37;;;;;;;;;;;31.40;24.80;;;;;;6248818;22;19980;-88
2022/07/10 09:51:06;;;;;;;;;;;31.10;25.00;;;;;;6223165;23;20324;-88
2022/07/10 09:53:32;;;;;;;;;;;30.80;25.70;;;;;;6249480;22;19907;-88
2022/07/10 09:56:00;;;;;;;;;;;30.70;26.10;;;;;;6222566;23;19916;-87
2022/07/10 09:58:29;;;;;;;;;;;30.40;26.30;;;;;;6222124;23;20320;-87
2022/07/10 10:00:55;;;;;;;;;;;30.20;26.50;;;;;;6222723;23;19908;-87
2022/07/10 10:03:21;;;;;;;;;;;30.00;26.70;;;;;;6222427;23;19938;-86
2022/07/10 10:05:53;;;;;;;;;;;29.90;27.10;;;;;;6222202;23;19907;-87
2022/07/10 10:08:22;;;;;;;;;;;29.80;27.20;;;;;;6222697;23;20250;-89
2022/07/10 10:10:49;;;;;;;;;;;29.80;27.60;;;;;;6222987;23;19915;-87
2022/07/10 10:13:18;;;;;;;;;;;29.90;27.80;;;;;;6249589;23;20002;-87
2022/07/10 10:15:47;;;;;;;;;;;30.00;27.90;;;;;;6221643;23;19942;-87
2022/07/10 10:20:36;;;;;;;;;;;30.10;27.90;;;;;;6224862;23;19912;-88
2022/07/10 10:21:23;;;;;;;;;;;30.30;27.80;;;;;;6251069;22;19923;-88
2022/07/10 10:23:49;;;;;;;;;;;30.30;27.80;;;;;;6223276;23;19904;-88
2022/07/10 10:26:14;;;;;;;;;;;30.40;27.60;;;;;;6220790;23;20244;-85
2022/07/10 10:28:39;;;;;;;;;;;30.40;27.80;;;;;;6247235;23;19904;-88
2022/07/10 10:31:08;;;;;;;;;;;30.60;27.90;;;;;;6248616;22;19947;-87
2022/07/10 10:33:43;;;;;;;;;;;30.70;27.40;;;;;;6221953;23;19903;-88
2022/07/10 10:36:09;;;;;;;;;;;30.70;27.50;;;;;;6219737;23;19919;-88
2022/07/10 10:38:51;;;;;;;;;;;30.70;27.70;;;;;;6221107;23;19904;-87
2022/07/10 10:41:29;;;;;;;;;;;30.80;27.70;;;;;;6247648;23;20552;-88
2022/07/10 10:44:06;;;;;;;;;;;30.80;27.60;;;;;;6219763;23;19907;-87
2022/07/10 10:46:41;;;;;;;;;;;30.60;27.50;;;;;;6247046;22;19923;-87
2022/07/10 10:49:07;;;;;;;;;;;30.30;27.70;;;;;;6246379;23;19904;-89
2022/07/10 10:51:52;;;;;;;;;;;30.10;28.20;;;;;;6218080;23;20321;-86
2022/07/10 10:54:17;;;;;;;;;;;30.00;28.60;;;;;;6218111;23;19993;-87
2022/07/10 10:56:44;;;;;;;;;;;29.90;28.90;;;;;;6220320;23;19916;-88
2022/07/10 10:59:09;;;;;;;;;;;29.80;29.00;;;;;;6224083;23;19915;-89
2022/07/10 11:01:35;;;;;;;;;;;29.70;29.50;;;;;;6248727;23;20275;-89
2022/07/10 11:04:04;;;;;;;;;;;29.60;29.50;;;;;;6247791;23;19939;-89
2022/07/10 11:06:39;;;;;;;;;;;29.50;29.70;;;;;;6222683;23;19911;-89
2022/07/10 11:09:24;;;;;;;;;;;29.60;29.90;;;;;;6222312;23;19903;-88
2022/07/10 11:12:03;;;;;;;;;;;29.70;29.90;;;;;;6219243;23;19916;-86
2022/07/10 11:14:32;;;;;;;;;;;29.60;30.10;;;;;;6246918;23;19908;-86
2022/07/10 11:16:58;;;;;;;;;;;29.60;30.20;;;;;;6246912;22;19916;-86
2022/07/10 11:19:25;;;;;;;;;;;29.50;30.30;;;;;;6219324;23;19965;-87
2022/07/10 11:21:55;;;;;;;;;;;29.50;30.60;;;;;;6218817;23;20324;-87
2022/07/10 11:24:42;;;;;;;;;;;29.50;30.80;;;;;;6218783;23;19934;-87
2022/07/10 11:27:26;;;;;;;;;;;29.30;31.30;;;;;;6246926;22;19919;-87
2022/07/10 11:30:00;;;;;;;;;;;28.90;33.20;;;;;;6219744;23;19938;-89
2022/07/10 11:32:26;;;;;;;;;;;28.20;38.10;;;;;;6221390;23;19911;-89
2022/07/10 11:34:52;;;;;;;;;;;27.50;42.70;;;;;;6248071;23;19916;-88
2022/07/10 11:37:17;;;;;;;;;;;27.10;46.00;;;;;;6247792;22;19911;-87
2022/07/10 11:39:43;;;;;;;;;;;26.80;48.30;;;;;;6246390;23;19930;-88
2022/07/10 11:42:11;;;;;;;;;;;26.60;49.60;;;;;;6246273;23;20209;-91
2022/07/10 11:44:41;;;;;;;;;;;26.50;50.80;;;;;;6249617;23;20268;-90
2022/07/10 11:47:07;;;;;;;;;;;26.60;51.80;;;;;;6222274;23;19912;-90
2022/07/10 11:49:34;;;;;;;;;;;26.60;52.00;;;;;;6247861;23;20678;-89
2022/07/10 11:52:03;;;;;;;;;;;26.70;52.70;;;;;;6249152;22;20379;-90
2022/07/10 11:54:29;;;;;;;;;;;26.80;52.60;;;;;;6248478;23;19949;-90
2022/07/10 11:56:55;;;;;;;;;;;26.80;49.30;;;;;;6249303;22;19951;-90
2022/07/10 11:59:38;;;;;;;;;;;26.80;50.10;;;;;;6258820;23;19942;-89
2022/07/10 12:02:04;;;;;;;;;;;26.80;51.20;;;;;;6251869;23;19927;-89
2022/07/10 12:04:31;;;;;;;;;;;27.00;51.90;;;;;;6252522;23;19898;-89
2022/07/10 12:06:56;;;;;;;;;;;27.20;52.10;;;;;;6250375;23;19942;-89
2022/07/10 12:09:23;;;;;;;;;;;27.20;49.50;;;;;;6260141;23;19927;-89
2022/07/10 12:12:11;;;;;;;;;;;27.10;48.50;;;;;;6237519;23;19915;-88
2022/07/10 12:14:36;;;;;;;;;;;27.10;50.10;;;;;;6237632;23;19923;-88
2022/07/10 12:17:09;;;;;;;;;;;27.10;51.30;;;;;;6256994;23;20304;-89
2022/07/10 12:19:39;;;;;;;;;;;27.20;52.00;;;;;;6224018;23;19914;-87
2022/07/10 12:22:04;;;;;;;;;;;27.20;51.80;;;;;;6218041;23;20360;-87
2022/07/10 12:24:30;;;;;;;;;;;27.20;50.90;;;;;;6244339;23;19954;-87
2022/07/10 12:26:56;;;;;;;;;;;27.30;52.00;;;;;;6242592;23;20219;-87
2022/07/10 12:29:25;;;;;;;;;;;27.50;52.90;;;;;;6244606;22;19950;-87
2022/07/10 12:31:52;;;;;;;;;;;27.80;52.80;;;;;;6217490;23;19915;-88
2022/07/10 12:34:18;;;;;;;;;;;27.90;52.30;;;;;;6216104;23;19908;-87
2022/07/10 12:36:48;;;;;;;;;;;28.00;50.90;;;;;;6244835;23;19938;-87
2022/07/10 12:39:15;;;;;;;;;;;28.00;48.50;;;;;;6220321;23;19911;-87
2022/07/10 12:41:55;;;;;;;;;;;28.00;49.10;;;;;;6215668;23;19918;-87
2022/07/10 12:44:32;;;;;;;;;;;28.10;49.80;;;;;;6243628;22;19917;-87
2022/07/10 12:47:11;;;;;;;;;;;28.20;49.90;;;;;;6243214;23;19919;-87
2022/07/10 12:49:56;;;;;;;;;;;28.50;50.20;;;;;;6216230;23;20347;-87
2022/07/10 12:52:22;;;;;;;;;;;28.90;49.80;;;;;;6243327;22;19955;-85
2022/07/10 12:54:48;;;;;;;;;;;29.40;49.80;;;;;;6216143;23;19916;-85
2022/07/10 12:57:14;;;;;;;;;;;29.80;48.70;;;;;;6243775;22;20335;-86
2022/07/10 12:59:43;;;;;;;;;;;30.30;48.30;;;;;;6243124;23;19912;-85
2022/07/10 13:02:16;;;;;;;;;;;30.80;46.80;;;;;;6241394;22;19904;-85
2022/07/10 13:04:53;;;;;;;;;;;31.30;45.50;;;;;;6243542;23;20293;-86
2022/07/10 13:07:19;;;;;;;;;;;31.80;45.30;;;;;;6243033;23;19904;-86
2022/07/10 13:09:45;;;;;;;;;;;32.10;43.70;;;;;;6242888;23;19958;-85
2022/07/10 13:12:10;;;;;;;;;;;32.20;43.60;;;;;;6241350;22;19982;-86
2022/07/10 13:14:36;;;;;;;;;;;32.20;43.50;;;;;;6243027;23;20304;-85
2022/07/10 13:17:01;;;;;;;;;;;32.20;42.10;;;;;;6241907;22;20320;-85
2022/07/10 13:19:27;;;;;;;;;;;32.10;42.00;;;;;;6243613;23;19912;-85
2022/07/10 13:21:55;;;;;;;;;;;32.00;41.70;;;;;;6242634;23;19911;-86
2022/07/10 13:24:23;;;;;;;;;;;31.90;41.70;;;;;;6242125;23;19907;-86
2022/07/10 13:26:55;;;;;;;;;;;31.80;40.60;;;;;;6243883;23;19943;-86
2022/07/10 13:29:21;;;;;;;;;;;31.50;41.00;;;;;;6243162;23;19914;-86
2022/07/10 13:31:47;;;;;;;;;;;31.30;40.80;;;;;;6218139;23;20328;-86
2022/07/10 13:34:12;;;;;;;;;;;31.00;41.10;;;;;;6243429;23;19922;-86
2022/07/10 13:36:38;;;;;;;;;;;30.60;40.80;;;;;;6242321;23;19994;-86
2022/07/10 13:39:03;;;;;;;;;;;30.00;40.50;;;;;;6244092;23;19907;-88
2022/07/10 13:41:29;;;;;;;;;;;29.30;42.30;;;;;;6245946;23;19965;-86
2022/07/10 13:43:54;;;;;;;;;;;28.60;43.20;;;;;;6244446;23;19934;-88
2022/07/10 13:46:20;;;;;;;;;;;28.00;45.20;;;;;;6244218;23;19914;-87
2022/07/10 13:48:45;;;;;;;;;;;27.40;47.30;;;;;;6246188;22;19911;-87
2022/07/10 13:51:11;;;;;;;;;;;26.80;49.00;;;;;;6218988;23;20083;-88
2022/07/10 13:53:36;;;;;;;;;;;26.40;50.30;;;;;;6244409;23;20317;-87
2022/07/10 13:56:04;;;;;;;;;;;26.20;51.50;;;;;;6242937;23;19919;-86
2022/07/10 13:58:29;;;;;;;;;;;26.20;53.70;;;;;;6217868;23;19912;-86
2022/07/10 14:00:55;;;;;;;;;;;26.30;53.80;;;;;;6243336;23;19908;-87
2022/07/10 14:03:20;;;;;;;;;;;26.50;54.60;;;;;;6243331;23;20308;-86
2022/07/10 14:05:47;;;;;;;;;;;26.60;55.00;;;;;;6244496;22;19907;-86
2022/07/10 14:08:12;;;;;;;;;;;26.70;54.60;;;;;;6244449;23;20635;-87
2022/07/10 14:10:38;;;;;;;;;;;26.90;53.80;;;;;;6246585;23;19930;-87
2022/07/10 14:13:05;;;;;;;;;;;27.10;52.80;;;;;;6247348;23;19919;-87
2022/07/10 14:15:30;;;;;;;;;;;27.30;52.50;;;;;;6244800;23;19911;-86
2022/07/10 14:17:56;;;;;;;;;;;27.50;52.40;;;;;;6246371;23;19915;-87
2022/07/10 14:20:21;;;;;;;;;;;27.70;52.60;;;;;;6247222;23;20413;-86
2022/07/10 14:22:47;;;;;;;;;;;28.00;50.20;;;;;;6249091;22;19946;-87
2022/07/10 14:25:13;;;;;;;;;;;28.10;49.50;;;;;;6246652;23;20307;-86
2022/07/10 14:27:39;;;;;;;;;;;28.40;50.30;;;;;;6248695;22;19948;-87